sensor_id;sensor_type;location;lat;lon;timestamp;pressure;altitude;pressure_sealevel;temperature;humidity
66887;BME280;67239;51.680;5.976;2023-11-21T00:00:36;100934.34;;;7.94;100.00
66887;BME280;67239;51.680;5.976;2023-11-21T00:03:03;100937.78;;;7.98;100.00
66887;BME280;67239;51.680;5.976;2023-11-21T00:05:31;100934.28;;;7.99;100.00
66887;BME280;67239;51.680;5.976;2023-11-21T00:07:58;100936.81;;;8.03;100.00
66887;BME280;67239;51.680;5.976;2023-11-21T00:10:25;100944.66;;;8.05;100.00
66887;BME280;67239;51.680;5.976;2023-11-21T00:12:53;100949.00;;;8.07;100.00
66887;BME280;67239;51.680;5.976;2023-11-21T00:15:21;100947.19;;;8.09;100.00
66887;BME280;67239;51.680;5.976;2023-11-21T00:17:48;100949.72;;;8.14;100.00
66887;BME280;67239;51.680;5.976;2023-11-21T00:20:16;100949.72;;;8.16;100.00
66887;BME280;67239;51.680;5.976;2023-11-21T00:22:43;100941.81;;;8.17;100.00
66887;BME280;67239;51.680;5.976;2023-11-21T00:25:12;100945.28;;;8.19;100.00
66887;BME280;67239;51.680;5.976;2023-11-21T00:27:42;100948.78;;;8.18;100.00
66887;BME280;67239;51.680;5.976;2023-11-21T00:30:09;100951.41;;;8.18;100.00
66887;BME280;67239;51.680;5.976;2023-11-21T00:32:37;100954.03;;;8.18;100.00
66887;BME280;67239;51.680;5.976;2023-11-21T00:35:05;100949.66;;;8.19;100.00
66887;BME280;67239;51.680;5.976;2023-11-21T00:37:32;100957.56;;;8.19;100.00
66887;BME280;67239;51.680;5.976;2023-11-21T00:40:00;100954.94;;;8.19;100.00
66887;BME280;67239;51.680;5.976;2023-11-21T00:42:31;100957.50;;;8.20;100.00
66887;BME280;67239;51.680;5.976;2023-11-21T00:45:01;100958.34;;;8.22;100.00
66887;BME280;67239;51.680;5.976;2023-11-21T00:47:29;100964.47;;;8.23;100.00
66887;BME280;67239;51.680;5.976;2023-11-21T00:49:56;100959.16;;;8.26;100.00
66887;BME280;67239;51.680;5.976;2023-11-21T00:52:23;100961.75;;;8.28;100.00
66887;BME280;67239;51.680;5.976;2023-11-21T00:54:51;100962.63;;;8.27;100.00
66887;BME280;67239;51.680;5.976;2023-11-21T00:57:18;100963.47;;;8.29;100.00
66887;BME280;67239;51.680;5.976;2023-11-21T00:59:45;100961.75;;;8.28;100.00
66887;BME280;67239;51.680;5.976;2023-11-21T01:02:12;100969.59;;;8.29;100.00
66887;BME280;67239;51.680;5.976;2023-11-21T01:04:39;100967.88;;;8.28;100.00
66887;BME280;67239;51.680;5.976;2023-11-21T01:07:07;100973.94;;;8.30;100.00
66887;BME280;67239;51.680;5.976;2023-11-21T01:09:34;100980.94;;;8.31;100.00
66887;BME280;67239;51.680;5.976;2023-11-21T01:12:01;100987.06;;;8.32;100.00
66887;BME280;67239;51.680;5.976;2023-11-21T01:14:28;100986.16;;;8.34;100.00
66887;BME280;67239;51.680;5.976;2023-11-21T01:16:57;100987.00;;;8.35;100.00
66887;BME280;67239;51.680;5.976;2023-11-21T01:19:24;100993.13;;;8.35;100.00
66887;BME280;67239;51.680;5.976;2023-11-21T01:21:51;100996.66;;;8.34;100.00
66887;BME280;67239;51.680;5.976;2023-11-21T01:24:19;100996.63;;;8.36;100.00
66887;BME280;67239;51.680;5.976;2023-11-21T01:26:46;101004.47;;;8.37;100.00
66887;BME280;67239;51.680;5.976;2023-11-21T01:29:13;101007.94;;;8.39;100.00
66887;BME280;67239;51.680;5.976;2023-11-21T01:31:41;101010.53;;;8.41;100.00
66887;BME280;67239;51.680;5.976;2023-11-21T01:34:09;101010.53;;;8.41;100.00
66887;BME280;67239;51.680;5.976;2023-11-21T01:36:36;101018.44;;;8.41;100.00
66887;BME280;67239;51.680;5.976;2023-11-21T01:39:03;101014.03;;;8.42;100.00
66887;BME280;67239;51.680;5.976;2023-11-21T01:41:35;101017.53;;;8.42;100.00
66887;BME280;67239;51.680;5.976;2023-11-21T01:44:02;101023.63;;;8.43;100.00
66887;BME280;67239;51.680;5.976;2023-11-21T01:46:29;101021.91;;;8.42;100.00
66887;BME280;67239;51.680;5.976;2023-11-21T01:48:57;101021.91;;;8.42;100.00
66887;BME280;67239;51.680;5.976;2023-11-21T01:51:24;101026.25;;;8.43;100.00
66887;BME280;67239;51.680;5.976;2023-11-21T01:53:53;101025.44;;;8.40;100.00
66887;BME280;67239;51.680;5.976;2023-11-21T01:56:21;101022.84;;;8.39;100.00
66887;BME280;67239;51.680;5.976;2023-11-21T01:58:48;101021.09;;;8.38;100.00
66887;BME280;67239;51.680;5.976;2023-11-21T02:01:15;101022.88;;;8.37;100.00
66887;BME280;67239;51.680;5.976;2023-11-21T02:03:42;101026.34;;;8.38;100.00
66887;BME280;67239;51.680;5.976;2023-11-21T02:06:09;101016.78;;;8.35;100.00
66887;BME280;67239;51.680;5.976;2023-11-21T02:08:36;101020.28;;;8.34;100.00
66887;BME280;67239;51.680;5.976;2023-11-21T02:11:05;101029.06;;;8.33;100.00
66887;BME280;67239;51.680;5.976;2023-11-21T02:13:33;101020.34;;;8.33;100.00
66887;BME280;67239;51.680;5.976;2023-11-21T02:16:00;101025.59;;;8.31;100.00
66887;BME280;67239;51.680;5.976;2023-11-21T02:18:28;101036.09;;;8.31;100.00
66887;BME280;67239;51.680;5.976;2023-11-21T02:20:56;101029.16;;;8.29;100.00
66887;BME280;67239;51.680;5.976;2023-11-21T02:23:23;101030.03;;;8.28;100.00
66887;BME280;67239;51.680;5.976;2023-11-21T02:25:55;101033.56;;;8.27;100.00
66887;BME280;67239;51.680;5.976;2023-11-21T02:28:23;101046.69;;;8.27;100.00
66887;BME280;67239;51.680;5.976;2023-11-21T02:30:53;101046.72;;;8.25;100.00
66887;BME280;67239;51.680;5.976;2023-11-21T02:33:24;101042.38;;;8.24;100.00
66887;BME280;67239;51.680;5.976;2023-11-21T02:35:52;101041.53;;;8.22;100.00
66887;BME280;67239;51.680;5.976;2023-11-21T02:38:21;101033.72;;;8.19;100.00
66887;BME280;67239;51.680;5.976;2023-11-21T02:40:49;101045.91;;;8.20;100.00
66887;BME280;67239;51.680;5.976;2023-11-21T02:43:16;101048.59;;;8.18;100.00
66887;BME280;67239;51.680;5.976;2023-11-21T02:45:44;101046.84;;;8.17;100.00
66887;BME280;67239;51.680;5.976;2023-11-21T02:48:12;101055.63;;;8.16;100.00
66887;BME280;67239;51.680;5.976;2023-11-21T02:50:39;101045.19;;;8.13;100.00
66887;BME280;67239;51.680;5.976;2023-11-21T02:53:07;101047.81;;;8.13;100.00
66887;BME280;67239;51.680;5.976;2023-11-21T02:55:34;101047.81;;;8.13;100.00
66887;BME280;67239;51.680;5.976;2023-11-21T02:58:02;101055.69;;;8.13;100.00
66887;BME280;67239;51.680;5.976;2023-11-21T03:00:30;101051.28;;;8.14;100.00
66887;BME280;67239;51.680;5.976;2023-11-21T03:02:57;101048.75;;;8.09;100.00
66887;BME280;67239;51.680;5.976;2023-11-21T03:05:25;101062.72;;;8.09;100.00
66887;BME280;67239;51.680;5.976;2023-11-21T03:07:52;101061.06;;;8.04;100.00
66887;BME280;67239;51.680;5.976;2023-11-21T03:10:19;101055.84;;;8.02;100.00
66887;BME280;67239;51.680;5.976;2023-11-21T03:12:47;101060.19;;;8.05;100.00
66887;BME280;67239;51.680;5.976;2023-11-21T03:15:14;101055.00;;;8.02;100.00
66887;BME280;67239;51.680;5.976;2023-11-21T03:17:42;101058.50;;;8.01;100.00
66887;BME280;67239;51.680;5.976;2023-11-21T03:20:10;101058.50;;;7.99;100.00
66887;BME280;67239;51.680;5.976;2023-11-21T03:22:38;101066.41;;;7.99;100.00
66887;BME280;67239;51.680;5.976;2023-11-21T03:25:07;101069.97;;;7.95;100.00
66887;BME280;67239;51.680;5.976;2023-11-21T03:27:38;101062.13;;;7.92;100.00
66887;BME280;67239;51.680;5.976;2023-11-21T03:30:08;101056.91;;;7.90;100.00
66887;BME280;67239;51.680;5.976;2023-11-21T03:32:36;101060.41;;;7.91;100.00
66887;BME280;67239;51.680;5.976;2023-11-21T03:35:04;101059.56;;;7.90;100.00
66887;BME280;67239;51.680;5.976;2023-11-21T03:37:33;101067.44;;;7.89;100.00
66887;BME280;67239;51.680;5.976;2023-11-21T03:40:00;101076.19;;;7.89;100.00
66887;BME280;67239;51.680;5.976;2023-11-21T03:42:27;101074.47;;;7.87;100.00
66887;BME280;67239;51.680;5.976;2023-11-21T03:44:54;101080.59;;;7.87;100.00
66887;BME280;67239;51.680;5.976;2023-11-21T03:47:22;101074.44;;;7.88;100.00
66887;BME280;67239;51.680;5.976;2023-11-21T03:49:49;101076.19;;;7.89;100.00
66887;BME280;67239;51.680;5.976;2023-11-21T03:52:16;101072.69;;;7.89;100.00
66887;BME280;67239;51.680;5.976;2023-11-21T03:54:44;101081.41;;;7.91;100.00
66887;BME280;67239;51.680;5.976;2023-11-21T03:57:11;101078.81;;;7.89;100.00
66887;BME280;67239;51.680;5.976;2023-11-21T03:59:43;101082.28;;;7.91;100.00
66887;BME280;67239;51.680;5.976;2023-11-21T04:02:10;101082.28;;;7.90;100.00
66887;BME280;67239;51.680;5.976;2023-11-21T04:04:37;101086.66;;;7.91;100.00
66887;BME280;67239;51.680;5.976;2023-11-21T04:07:05;101090.22;;;7.87;100.00
66887;BME280;67239;51.680;5.976;2023-11-21T04:09:32;101082.38;;;7.85;100.00
66887;BME280;67239;51.680;5.976;2023-11-21T04:11:59;101085.00;;;7.87;100.00
66887;BME280;67239;51.680;5.976;2023-11-21T04:14:26;101095.50;;;7.85;100.00
66887;BME280;67239;51.680;5.976;2023-11-21T04:16:54;101102.53;;;7.83;100.00
66887;BME280;67239;51.680;5.976;2023-11-21T04:19:22;101096.41;;;7.83;100.00
66887;BME280;67239;51.680;5.976;2023-11-21T04:21:49;101102.53;;;7.82;100.00
66887;BME280;67239;51.680;5.976;2023-11-21T04:24:16;101110.41;;;7.82;100.00
66887;BME280;67239;51.680;5.976;2023-11-21T04:26:44;101113.94;;;7.81;100.00
66887;BME280;67239;51.680;5.976;2023-11-21T04:29:12;101126.19;;;7.80;100.00
66887;BME280;67239;51.680;5.976;2023-11-21T04:31:39;101127.94;;;7.80;100.00
66887;BME280;67239;51.680;5.976;2023-11-21T04:34:06;101128.81;;;7.78;100.00
66887;BME280;67239;51.680;5.976;2023-11-21T04:36:33;101125.31;;;7.80;100.00
66887;BME280;67239;51.680;5.976;2023-11-21T04:39:01;101131.47;;;7.77;100.00
66887;BME280;67239;51.680;5.976;2023-11-21T04:41:29;101132.38;;;7.77;100.00
66887;BME280;67239;51.680;5.976;2023-11-21T04:43:58;101133.22;;;7.78;100.00
66887;BME280;67239;51.680;5.976;2023-11-21T04:46:27;101135.00;;;7.76;100.00
66887;BME280;67239;51.680;5.976;2023-11-21T04:48:55;101139.34;;;7.77;100.00
66887;BME280;67239;51.680;5.976;2023-11-21T04:51:22;101149.81;;;7.78;100.00
66887;BME280;67239;51.680;5.976;2023-11-21T04:53:49;101148.94;;;7.80;100.00
66887;BME280;67239;51.680;5.976;2023-11-21T04:56:16;101145.47;;;7.79;100.00
66887;BME280;67239;51.680;5.976;2023-11-21T04:58:43;101151.56;;;7.80;100.00
66887;BME280;67239;51.680;5.976;2023-11-21T05:01:11;101148.97;;;7.78;100.00
66887;BME280;67239;51.680;5.976;2023-11-21T05:03:38;101153.38;;;7.77;100.00
66887;BME280;67239;51.680;5.976;2023-11-21T05:06:06;101156.00;;;7.77;100.00
66887;BME280;67239;51.680;5.976;2023-11-21T05:08:36;101156.00;;;7.76;100.00
66887;BME280;67239;51.680;5.976;2023-11-21T05:11:04;101154.25;;;7.76;100.00
66887;BME280;67239;51.680;5.976;2023-11-21T05:13:31;101165.56;;;7.78;100.00
66887;BME280;67239;51.680;5.976;2023-11-21T05:16:00;101172.63;;;7.76;100.00
66887;BME280;67239;51.680;5.976;2023-11-21T05:18:30;101162.97;;;7.77;100.00
66887;BME280;67239;51.680;5.976;2023-11-21T05:20:58;101171.78;;;7.74;100.00
66887;BME280;67239;51.680;5.976;2023-11-21T05:23:25;101172.63;;;7.75;100.00
66887;BME280;67239;51.680;5.976;2023-11-21T05:25:52;101178.75;;;7.74;100.00
66887;BME280;67239;51.680;5.976;2023-11-21T05:28:19;101180.53;;;7.73;100.00
66887;BME280;67239;51.680;5.976;2023-11-21T05:32:24;101190.16;;;7.71;100.00
66887;BME280;67239;51.680;5.976;2023-11-21T05:34:52;101184.06;;;7.71;100.00
66887;BME280;67239;51.680;5.976;2023-11-21T05:37:19;101182.31;;;7.70;100.00
66887;BME280;67239;51.680;5.976;2023-11-21T05:39:46;101196.34;;;7.69;100.00
66887;BME280;67239;51.680;5.976;2023-11-21T05:42:13;101193.75;;;7.67;100.00
66887;BME280;67239;51.680;5.976;2023-11-21T05:44:42;101201.63;;;7.67;100.00
66887;BME280;67239;51.680;5.976;2023-11-21T05:47:10;101193.75;;;7.66;100.00
66887;BME280;67239;51.680;5.976;2023-11-21T05:49:37;101198.13;;;7.65;100.00
66887;BME280;67239;51.680;5.976;2023-11-21T05:52:04;101198.13;;;7.65;100.00
66887;BME280;67239;51.680;5.976;2023-11-21T05:54:32;101207.75;;;7.66;100.00
66887;BME280;67239;51.680;5.976;2023-11-21T05:56:59;101204.25;;;7.64;100.00
66887;BME280;67239;51.680;5.976;2023-11-21T05:59:26;101198.13;;;7.64;100.00
66887;BME280;67239;51.680;5.976;2023-11-21T06:01:53;101204.25;;;7.64;100.00
66887;BME280;67239;51.680;5.976;2023-11-21T06:04:20;101213.84;;;7.67;100.00
66887;BME280;67239;51.680;5.976;2023-11-21T06:06:51;101219.09;;;7.67;100.00
66887;BME280;67239;51.680;5.976;2023-11-21T06:09:19;101224.31;;;7.70;100.00
66887;BME280;67239;51.680;5.976;2023-11-21T06:11:47;101226.88;;;7.74;100.00
66887;BME280;67239;51.680;5.976;2023-11-21T06:14:14;101228.66;;;7.72;100.00
66887;BME280;67239;51.680;5.976;2023-11-21T06:16:45;101226.00;;;7.74;100.00
66887;BME280;67239;51.680;5.976;2023-11-21T06:19:12;101228.59;;;7.77;100.00
66887;BME280;67239;51.680;5.976;2023-11-21T06:21:39;101232.94;;;7.80;100.00
66887;BME280;67239;51.680;5.976;2023-11-21T06:24:06;101230.31;;;7.81;100.00
66887;BME280;67239;51.680;5.976;2023-11-21T06:26:34;101231.25;;;7.75;100.00
66887;BME280;67239;51.680;5.976;2023-11-21T06:29:01;101233.03;;;7.73;100.00
66887;BME280;67239;51.680;5.976;2023-11-21T06:31:30;101240.91;;;7.70;100.00
66887;BME280;67239;51.680;5.976;2023-11-21T06:33:57;101245.31;;;7.68;100.00
66887;BME280;67239;51.680;5.976;2023-11-21T06:36:26;101254.94;;;7.68;100.00
66887;BME280;67239;51.680;5.976;2023-11-21T06:38:53;101253.22;;;7.67;100.00
66887;BME280;67239;51.680;5.976;2023-11-21T06:41:23;101256.72;;;7.67;100.00
66887;BME280;67239;51.680;5.976;2023-11-21T06:43:50;101257.53;;;7.69;100.00
66887;BME280;67239;51.680;5.976;2023-11-21T06:46:17;101269.78;;;7.70;100.00
66887;BME280;67239;51.680;5.976;2023-11-21T06:48:46;101270.66;;;7.69;100.00
66887;BME280;67239;51.680;5.976;2023-11-21T06:51:15;101270.69;;;7.68;100.00
66887;BME280;67239;51.680;5.976;2023-11-21T06:53:43;101273.31;;;7.68;100.00
66887;BME280;67239;51.680;5.976;2023-11-21T06:56:19;101275.09;;;7.67;100.00
66887;BME280;67239;51.680;5.976;2023-11-21T06:58:46;101264.63;;;7.64;100.00
66887;BME280;67239;51.680;5.976;2023-11-21T07:01:14;101284.69;;;7.67;100.00
66887;BME280;67239;51.680;5.976;2023-11-21T07:03:43;101286.47;;;7.66;100.00
66887;BME280;67239;51.680;5.976;2023-11-21T07:06:11;101286.47;;;7.66;100.00
66887;BME280;67239;51.680;5.976;2023-11-21T07:08:38;101292.56;;;7.67;100.00
66887;BME280;67239;51.680;5.976;2023-11-21T07:11:05;101289.97;;;7.65;100.00
66887;BME280;67239;51.680;5.976;2023-11-21T07:13:34;101297.84;;;7.65;100.00
66887;BME280;67239;51.680;5.976;2023-11-21T07:16:01;101296.97;;;7.65;100.00
66887;BME280;67239;51.680;5.976;2023-11-21T07:18:28;101300.47;;;7.65;100.00
66887;BME280;67239;51.680;5.976;2023-11-21T07:20:58;101303.06;;;7.67;100.00
66887;BME280;67239;51.680;5.976;2023-11-21T07:23:25;101306.59;;;7.67;100.00
66887;BME280;67239;51.680;5.976;2023-11-21T07:25:54;101314.47;;;7.67;100.00
66887;BME280;67239;51.680;5.976;2023-11-21T07:28:21;101328.41;;;7.69;100.00
66887;BME280;67239;51.680;5.976;2023-11-21T07:30:50;101332.81;;;7.69;100.00
66887;BME280;67239;51.680;5.976;2023-11-21T07:33:17;101331.91;;;7.70;100.00
66887;BME280;67239;51.680;5.976;2023-11-21T07:35:44;101342.41;;;7.70;100.00
66887;BME280;67239;51.680;5.976;2023-11-21T07:38:11;101347.63;;;7.71;100.00
66887;BME280;67239;51.680;5.976;2023-11-21T07:40:40;101344.13;;;7.72;100.00
66887;BME280;67239;51.680;5.976;2023-11-21T07:43:10;101349.34;;;7.74;100.00
66887;BME280;67239;51.680;5.976;2023-11-21T07:45:37;101347.59;;;7.76;100.00
66887;BME280;67239;51.680;5.976;2023-11-21T07:48:04;101354.59;;;7.77;100.00
66887;BME280;67239;51.680;5.976;2023-11-21T07:50:33;101358.06;;;7.79;100.00
66887;BME280;67239;51.680;5.976;2023-11-21T07:53:00;101355.44;;;7.79;100.00
66887;BME280;67239;51.680;5.976;2023-11-21T07:55:28;101360.66;;;7.81;100.00
66887;BME280;67239;51.680;5.976;2023-11-21T07:57:59;101365.91;;;7.82;100.00
66887;BME280;67239;51.680;5.976;2023-11-21T08:00:26;101368.53;;;7.84;100.00
66887;BME280;67239;51.680;5.976;2023-11-21T08:02:58;101366.75;;;7.84;100.00
66887;BME280;67239;51.680;5.976;2023-11-21T08:05:25;101367.63;;;7.88;100.00
66887;BME280;67239;51.680;5.976;2023-11-21T08:08:05;101373.69;;;7.91;100.00
66887;BME280;67239;51.680;5.976;2023-11-21T08:10:33;101378.03;;;7.94;100.00
66887;BME280;67239;51.680;5.976;2023-11-21T08:13:01;101377.16;;;7.95;100.00
66887;BME280;67239;51.680;5.976;2023-11-21T08:15:28;101378.88;;;7.98;100.00
66887;BME280;67239;51.680;5.976;2023-11-21T08:17:58;101379.75;;;7.98;100.00
66887;BME280;67239;51.680;5.976;2023-11-21T08:20:25;101386.75;;;7.98;100.00
66887;BME280;67239;51.680;5.976;2023-11-21T08:22:53;101394.63;;;7.98;100.00
66887;BME280;67239;51.680;5.976;2023-11-21T08:25:20;101389.38;;;7.98;100.00
66887;BME280;67239;51.680;5.976;2023-11-21T08:27:47;101391.13;;;7.99;100.00
66887;BME280;67239;51.680;5.976;2023-11-21T08:30:14;101396.34;;;8.00;100.00
66887;BME280;67239;51.680;5.976;2023-11-21T08:32:43;101405.97;;;8.00;100.00
66887;BME280;67239;51.680;5.976;2023-11-21T08:35:10;101412.09;;;8.02;100.00
66887;BME280;67239;51.680;5.976;2023-11-21T08:37:39;101412.97;;;8.01;100.00
66887;BME280;67239;51.680;5.976;2023-11-21T08:40:07;101413.84;;;8.00;100.00
66887;BME280;67239;51.680;5.976;2023-11-21T08:42:39;101423.50;;;7.98;100.00
66887;BME280;67239;51.680;5.976;2023-11-21T08:45:06;101420.00;;;7.99;100.00
66887;BME280;67239;51.680;5.976;2023-11-21T08:47:35;101425.25;;;7.99;100.00
66887;BME280;67239;51.680;5.976;2023-11-21T08:50:03;101434.88;;;8.00;100.00
66887;BME280;67239;51.680;5.976;2023-11-21T08:52:33;101433.03;;;8.05;100.00
66887;BME280;67239;51.680;5.976;2023-11-21T08:55:01;101443.50;;;8.11;100.00
66887;BME280;67239;51.680;5.976;2023-11-21T08:57:44;101434.66;;;8.18;100.00
66887;BME280;67239;51.680;5.976;2023-11-21T09:00:13;101442.44;;;8.28;100.00
66887;BME280;67239;51.680;5.976;2023-11-21T09:02:44;101445.00;;;8.35;100.00
66887;BME280;67239;51.680;5.976;2023-11-21T09:05:12;101450.19;;;8.40;100.00
66887;BME280;67239;51.680;5.976;2023-11-21T09:07:41;101453.69;;;8.42;100.00
66887;BME280;67239;51.680;5.976;2023-11-21T09:10:09;101452.78;;;8.42;100.00
66887;BME280;67239;51.680;5.976;2023-11-21T09:12:37;101451.03;;;8.44;100.00
66887;BME280;67239;51.680;5.976;2023-11-21T09:15:06;101453.63;;;8.47;100.00
66887;BME280;67239;51.680;5.976;2023-11-21T09:17:34;101449.22;;;8.52;100.00
66887;BME280;67239;51.680;5.976;2023-11-21T09:20:02;101447.34;;;8.60;100.00
66887;BME280;67239;51.680;5.976;2023-11-21T09:22:32;101456.88;;;8.69;100.00
66887;BME280;67239;51.680;5.976;2023-11-21T09:25:00;101456.81;;;8.74;100.00
66887;BME280;67239;51.680;5.976;2023-11-21T09:27:27;101457.66;;;8.77;100.00
66887;BME280;67239;51.680;5.976;2023-11-21T09:29:54;101462.84;;;8.82;100.00
66887;BME280;67239;51.680;5.976;2023-11-21T09:32:22;101467.22;;;8.83;100.00
66887;BME280;67239;51.680;5.976;2023-11-21T09:34:49;101469.78;;;8.89;100.00
66887;BME280;67239;51.680;5.976;2023-11-21T09:37:17;101470.56;;;8.96;100.00
66887;BME280;67239;51.680;5.976;2023-11-21T09:39:45;101483.63;;;9.02;100.00
66887;BME280;67239;51.680;5.976;2023-11-21T09:42:23;101472.16;;;9.06;100.00
66887;BME280;67239;51.680;5.976;2023-11-21T09:45:09;101475.63;;;9.11;100.00
66887;BME280;67239;51.680;5.976;2023-11-21T09:47:45;101483.47;;;9.14;100.00
66887;BME280;67239;51.680;5.976;2023-11-21T09:50:16;101484.34;;;9.15;100.00
66887;BME280;67239;51.680;5.976;2023-11-21T09:55:37;101490.44;;;9.17;100.00
66887;BME280;67239;51.680;5.976;2023-11-21T09:58:09;101499.22;;;9.16;100.00
66887;BME280;67239;51.680;5.976;2023-11-21T10:00:46;101501.88;;;9.14;100.00
66887;BME280;67239;51.680;5.976;2023-11-21T10:03:15;101506.22;;;9.17;100.00
66887;BME280;67239;51.680;5.976;2023-11-21T10:05:44;101508.88;;;9.17;100.00
66887;BME280;67239;51.680;5.976;2023-11-21T10:08:13;101516.78;;;9.14;100.00
66887;BME280;67239;51.680;5.976;2023-11-21T10:10:45;101523.81;;;9.12;100.00
66887;BME280;67239;51.680;5.976;2023-11-21T10:13:15;101519.50;;;9.08;100.00
66887;BME280;67239;51.680;5.976;2023-11-21T10:15:49;101525.63;;;9.10;100.00
66887;BME280;67239;51.680;5.976;2023-11-21T10:18:18;101528.25;;;9.10;100.00
66887;BME280;67239;51.680;5.976;2023-11-21T10:20:46;101533.50;;;9.11;100.00
66887;BME280;67239;51.680;5.976;2023-11-21T10:23:20;101537.81;;;9.17;100.00
66887;BME280;67239;51.680;5.976;2023-11-21T10:25:51;101545.63;;;9.22;100.00
66887;BME280;67239;51.680;5.976;2023-11-21T10:28:20;101547.38;;;9.21;100.00
66887;BME280;67239;51.680;5.976;2023-11-21T10:30:48;101551.72;;;9.25;100.00
66887;BME280;67239;51.680;5.976;2023-11-21T10:33:15;101552.53;;;9.29;100.00
66887;BME280;67239;51.680;5.976;2023-11-21T10:35:44;101550.69;;;9.36;100.00
66887;BME280;67239;51.680;5.976;2023-11-21T10:38:21;101545.34;;;9.42;100.00
66887;BME280;67239;51.680;5.976;2023-11-21T10:40:50;101547.91;;;9.48;100.00
66887;BME280;67239;51.680;5.976;2023-11-21T10:43:18;101555.72;;;9.53;100.00
66887;BME280;67239;51.680;5.976;2023-11-21T10:45:45;101565.31;;;9.57;100.00
66887;BME280;67239;51.680;5.976;2023-11-21T10:48:14;101559.16;;;9.58;100.00
66887;BME280;67239;51.680;5.976;2023-11-21T10:50:45;101557.47;;;9.54;100.00
66887;BME280;67239;51.680;5.976;2023-11-21T10:53:14;101557.53;;;9.49;100.00
66887;BME280;67239;51.680;5.976;2023-11-21T10:55:42;101554.09;;;9.45;100.00
66887;BME280;67239;51.680;5.976;2023-11-21T10:58:13;101555.78;;;9.46;100.00
66887;BME280;67239;51.680;5.976;2023-11-21T11:00:42;101561.91;;;9.48;100.00
66887;BME280;67239;51.680;5.976;2023-11-21T11:03:12;101565.44;;;9.49;100.00
66887;BME280;67239;51.680;5.976;2023-11-21T11:05:43;101565.44;;;9.49;100.00
66887;BME280;67239;51.680;5.976;2023-11-21T11:08:21;101557.56;;;9.46;100.00
66887;BME280;67239;51.680;5.976;2023-11-21T11:10:55;101553.16;;;9.48;100.00
66887;BME280;67239;51.680;5.976;2023-11-21T11:13:23;101549.53;;;9.55;100.00
66887;BME280;67239;51.680;5.976;2023-11-21T11:15:58;101548.53;;;9.64;100.00
66887;BME280;67239;51.680;5.976;2023-11-21T11:18:29;101566.06;;;9.67;100.00
66887;BME280;67239;51.680;5.976;2023-11-21T11:21:32;101566.81;;;9.76;100.00
66887;BME280;67239;51.680;5.976;2023-11-21T11:27:38;101570.97;;;9.90;100.00
66887;BME280;67239;51.680;5.976;2023-11-21T11:30:55;101578.78;;;9.94;100.00
66887;BME280;67239;51.680;5.976;2023-11-21T11:33:58;101582.16;;;10.03;100.00
66887;BME280;67239;51.680;5.976;2023-11-21T11:36:44;101576.06;;;10.01;100.00
66887;BME280;67239;51.680;5.976;2023-11-21T11:42:05;101578.78;;;9.96;100.00
66887;BME280;67239;51.680;5.976;2023-11-21T11:47:24;101600.66;;;10.00;100.00
66887;BME280;67239;51.680;5.976;2023-11-21T11:50:10;101596.31;;;9.97;100.00
66887;BME280;67239;51.680;5.976;2023-11-21T11:52:46;101604.19;;;9.99;100.00
66887;BME280;67239;51.680;5.976;2023-11-21T11:55:16;101609.31;;;10.08;100.00
66887;BME280;67239;51.680;5.976;2023-11-21T11:57:50;101610.25;;;10.04;100.00
66887;BME280;67239;51.680;5.976;2023-11-21T12:02:54;101626.19;;;9.96;100.00
66887;BME280;67239;51.680;5.976;2023-11-21T12:05:26;101633.28;;;9.91;100.00
66887;BME280;67239;51.680;5.976;2023-11-21T12:08:02;101637.81;;;9.81;100.00
66887;BME280;67239;51.680;5.976;2023-11-21T12:10:35;101635.28;;;9.73;100.00
66887;BME280;67239;51.680;5.976;2023-11-21T12:13:08;101642.34;;;9.71;100.00
66887;BME280;67239;51.680;5.976;2023-11-21T12:15:37;101646.72;;;9.72;100.00
66887;BME280;67239;51.680;5.976;2023-11-21T12:18:07;101648.47;;;9.73;100.00
66887;BME280;67239;51.680;5.976;2023-11-21T12:20:34;101656.38;;;9.70;100.00
66887;BME280;67239;51.680;5.976;2023-11-21T12:23:07;101652.84;;;9.73;100.00
66887;BME280;67239;51.680;5.976;2023-11-21T12:25:36;101652.00;;;9.69;100.00
66887;BME280;67239;51.680;5.976;2023-11-21T12:28:04;101648.56;;;9.66;100.00
66887;BME280;67239;51.680;5.976;2023-11-21T12:30:36;101651.22;;;9.62;100.00
66887;BME280;67239;51.680;5.976;2023-11-21T12:33:05;101647.75;;;9.60;100.00
66887;BME280;67239;51.680;5.976;2023-11-21T12:35:36;101651.22;;;9.64;100.00
66887;BME280;67239;51.680;5.976;2023-11-21T12:38:04;101652.16;;;9.60;100.00
66887;BME280;67239;51.680;5.976;2023-11-21T12:40:32;101659.09;;;9.66;100.00
66887;BME280;67239;51.680;5.976;2023-11-21T12:43:00;101660.84;;;9.67;100.00
66887;BME280;67239;51.680;5.976;2023-11-21T12:45:32;101668.63;;;9.73;100.00
66887;BME280;67239;51.680;5.976;2023-11-21T12:48:01;101655.34;;;9.82;100.00
66887;BME280;67239;51.680;5.976;2023-11-21T12:50:35;101670.22;;;9.86;100.00
66887;BME280;67239;51.680;5.976;2023-11-21T12:53:11;101669.25;;;9.92;100.00
66887;BME280;67239;51.680;5.976;2023-11-21T12:55:39;101664.81;;;9.95;100.00
66887;BME280;67239;51.680;5.976;2023-11-21T12:58:10;101671.91;;;9.92;100.00
66887;BME280;67239;51.680;5.976;2023-11-21T13:00:40;101675.38;;;9.94;100.00
66887;BME280;67239;51.680;5.976;2023-11-21T13:03:12;101671.94;;;9.90;100.00
66887;BME280;67239;51.680;5.976;2023-11-21T13:05:46;101679.00;;;9.85;100.00
66887;BME280;67239;51.680;5.976;2023-11-21T13:08:20;101677.34;;;9.81;100.00
66887;BME280;67239;51.680;5.976;2023-11-21T13:10:54;101678.16;;;9.83;100.00
66887;BME280;67239;51.680;5.976;2023-11-21T13:13:25;101678.09;;;9.88;100.00
66887;BME280;67239;51.680;5.976;2023-11-21T13:16:05;101676.25;;;9.96;100.00